You are not logged in, Click here to log in
機場資訊:KSFO Welcome to Taiwan Airways 台灣虛擬航空
ICAO: KSFO Country: 舊金山市南方大約13英里
Latitude: 37.6213 Longitude: -122.379
Total Arrivals: 28 Total Departures: 24
Latest Arrival: CP5705 (KSEA-KSFO)Chun Tang. Chiang Latest Departure: VX1946 (KSFO-KLAX)Jason. Li
Scenery:
METAR : KSFO 151756Z 00000KT 10SM FEW018 BKN027 16/11 A3023 RMK AO2 SLP235 T01610106 10161 20128 51008

舊金山國際機場SFO

You are accessing this site from IP address 18.205.96.39. Virtual Airline. CMS by phpVMS.Website designed by Zumeweb and edited by Theo Bearman.
There is 0 User(s) Online: | and 3 Guest(s) Online.
All information on this site is for fight simulation purposes only. This site is for flight logging for pilots of Virtual Airline&模擬飛行論壇 FlySim only.